X  Luk Metar data     EHRD Rotterdam The Hague Airport
Temperatur
16°C Temperatur
11°C Duggpunkt
72% Fugtighed



Vind
16 KM/T
10 MPT
4 M/S
9 KNOB



260°
Vest
Nuværende forhold

For det meste spredte skyer For det meste spredte skyer
Tryk 1019.92 (hPa) - 30.12 (inHg)
Sigt 6.2 (mil) - 10 (km)
Lufthavn
Lufthavnskode EHRD

Lokation: Rotterdam The Hague Airport
Afstand: 16 (km)

Metar:
EHRD 260755Z AUTO 26009KT 220V290 9999 SCT017 BKN021 16/11 Q1020 NOSIG

Tid: 26-05-2022 09:55 CEST